Monday, June 25, 2018, 9:33 AM EDT
Back to Local

KNYC, New York City Central Park

Location: New York, NY, United States Lat: 40.783
Local Time: 9:33 AM EDT (13:33 GMT) Lon: -73.967
Time Zone: US/Eastern Elev: 157 ft

Show me the last for .
Show Decoded

2018-06-25 08:51 METAR KNYC 251251Z AUTO VRB06G16KT 10SM FEW033 22/14 A2998 RMK AO2 SLP143
                 T02220144 $ =
2018-06-25 07:51 METAR KNYC 251151Z AUTO VRB05KT 10SM CLR 21/14 A2998 RMK AO2 SLP141 T02060144
                 10217 20194 51028 $ =
2018-06-25 06:51 METAR KNYC 251051Z AUTO VRB04KT 10SM CLR 20/16 A2996 RMK AO2 SLP134 T02000161 $
                 =
2018-06-25 05:51 METAR KNYC 250951Z AUTO VRB04KT 10SM FEW075 19/16 A2994 RMK AO2 SLP127 T01940156
                 $ =
2018-06-25 04:51 METAR KNYC 250851Z AUTO 36005KT 10SM BKN037 20/16 A2989 RMK AO2 SLP112 T02000156
                 51015 $ =
2018-06-25 04:39 METAR KNYC 250839Z AUTO 35008KT 320V030 10SM SCT026 BKN035 20/16 A2989 RMK AO2
                 T02000156 $ =
2018-06-25 04:14 METAR KNYC 250814Z AUTO 00000KT 10SM SCT016 OVC023 21/16 A2988 RMK AO2 T02060161
                 $ =
2018-06-25 03:51 METAR KNYC 250751Z AUTO 04007KT 360V090 10SM OVC014 21/17 A2988 RMK AO2 SLP107
                 T02110172 $ =
2018-06-25 03:27 METAR KNYC 250727Z AUTO VRB03KT 10SM BKN018 21/18 A2986 RMK AO2 T02110178 $ =
2018-06-25 02:51 METAR KNYC 250651Z AUTO VRB05KT 10SM CLR 21/18 A2985 RMK AO2 SLP098 T02110178 $
                 =
2018-06-25 01:51 METAR KNYC 250551Z AUTO 29006KT 10SM CLR 22/18 A2984 RMK AO2 SLP095 60000
                 T02170178 10289 20217 58003 $ =
2018-06-25 00:51 METAR KNYC 250451Z AUTO 28005KT 10SM CLR 22/18 A2985 RMK AO2 SLP097 T02220183
                 402890189 $ =
2018-06-24 23:51 METAR KNYC 250351Z AUTO VRB03KT 10SM CLR 22/18 A2985 RMK AO2 SLP097 T02220183 $
                 =
2018-06-24 22:51 METAR KNYC 250251Z AUTO 00000KT 10SM SCT110 22/18 A2985 RMK AO2 RAE03 SLP098
                 P0000 60000 T02220183 50019 $ =
2018-06-24 21:51 METAR KNYC 250151Z AUTO VRB04KT 7SM -RA SCT060 BKN075 OVC110 22/19 A2986 RMK AO2
                 RAB0059 SLP101 P0000 T02220194 $ =
2018-06-24 20:51 METAR KNYC 250051Z AUTO 00000KT 10SM BKN070 28/18 A2980 RMK AO2 SLP081 T02830178
                 $ =
2018-06-24 19:51 METAR KNYC 242351Z AUTO VRB05KT 10SM SCT090 28/17 A2979 RMK AO2 SLP079 T02830172
                 10289 20256 55003 $ =
2018-06-24 18:51 METAR KNYC 242251Z AUTO VRB04KT 10SM FEW065 29/17 A2978 RMK AO2 SLP073 T02890172
                 $ =
2018-06-24 17:51 METAR KNYC 242151Z AUTO VRB03KT 10SM SCT060 BKN070 27/21 A2979 RMK AO2 SLP077
                 T02670211 $ =
2018-06-24 16:51 METAR KNYC 242051Z AUTO VRB03KT 9SM SCT055 BKN070 OVC085 26/21 A2980 RMK AO2
                 SLP082 T02610211 56010 $ =
2018-06-24 15:51 METAR KNYC 241951Z AUTO 16004KT 8SM SCT055 BKN090 27/21 A2980 RMK AO2 SLP081
                 T02720211 $ =
2018-06-24 14:51 METAR KNYC 241851Z AUTO VRB03KT 9SM BKN090 27/21 A2982 RMK AO2 SLP086 T02720206
                 $ =
2018-06-24 13:51 METAR KNYC 241751Z AUTO VRB04KT 8SM FEW042 BKN090 27/21 A2983 RMK AO2 SLP092
                 T02670206 10283 20200 56010 $ =
2018-06-24 12:51 METAR KNYC 241651Z AUTO VRB03KT 8SM CLR 28/20 A2983 RMK AO2 SLP093 T02780200 $ =
2018-06-24 11:51 METAR KNYC 241551Z AUTO VRB04KT 7SM FEW022 26/20 A2985 RMK AO2 SLP099 T02560200
                 $ =
2018-06-24 11:14 METAR KNYC 241514Z AUTO 00000KT 6SM HZ SCT019 24/20 A2986 RMK AO2 T02440200 $ =
2018-06-24 10:51 METAR KNYC 241451Z AUTO 00000KT 5SM HZ BKN017 24/19 A2986 RMK AO2 SLP102
                 T02390194 58001 $ =
2018-06-24 10:40 METAR KNYC 241440Z AUTO 00000KT 5SM HZ BKN015 23/19 A2986 RMK AO2 T02330194 $ =
2018-06-24 09:51 METAR KNYC 241351Z AUTO 00000KT 4SM HZ OVC011 22/19 A2987 RMK AO2 SLP104
                 T02170189 $ =

Support USWX by starting your Amazon purchase here.